createdAt,value
2023-05-23T00:00:33.804Z,71.91
2023-05-23T00:03:03.095Z,71.93
2023-05-23T00:05:31.713Z,71.88
2023-05-23T00:07:59.930Z,72.06
2023-05-23T00:10:28.240Z,72.12
2023-05-23T00:12:58.194Z,72.06
2023-05-23T00:15:26.516Z,72.13
2023-05-23T00:17:56.305Z,71.98
2023-05-23T00:20:24.844Z,72.03
2023-05-23T00:22:54.529Z,72.03
2023-05-23T00:25:22.960Z,71.97
2023-05-23T00:27:51.197Z,71.74
2023-05-23T00:30:19.521Z,71.95
2023-05-23T00:32:47.861Z,71.80
2023-05-23T00:35:17.990Z,71.87
2023-05-23T00:37:46.227Z,72.10
2023-05-23T00:40:14.664Z,72.35
2023-05-23T00:42:43.077Z,72.93
2023-05-23T00:45:12.810Z,73.09
2023-05-23T00:47:41.391Z,73.09
2023-05-23T00:50:14.694Z,72.99
2023-05-23T00:52:46.207Z,73.14
2023-05-23T00:55:15.170Z,72.98
2023-05-23T00:57:44.707Z,72.61
2023-05-23T01:00:15.411Z,72.49
2023-05-23T01:02:46.571Z,72.97
2023-05-23T01:05:18.531Z,72.96
2023-05-23T01:07:48.611Z,72.93
2023-05-23T01:10:18.644Z,73.06
2023-05-23T01:12:58.230Z,73.09
2023-05-23T01:15:32.590Z,73.23
2023-05-23T01:18:04.540Z,73.01
2023-05-23T01:20:37.952Z,72.98
2023-05-23T01:23:31.148Z,72.95
2023-05-23T01:26:14.819Z,73.02
2023-05-23T01:28:47.452Z,73.18
2023-05-23T01:31:17.629Z,72.97
2023-05-23T01:33:50.115Z,72.77
2023-05-23T01:36:18.460Z,72.78
2023-05-23T01:38:46.680Z,72.63
2023-05-23T01:41:14.982Z,72.61
2023-05-23T01:43:44.953Z,72.26
2023-05-23T01:46:14.169Z,72.38
2023-05-23T01:48:43.216Z,72.49
2023-05-23T01:51:11.828Z,72.41
2023-05-23T01:53:40.277Z,72.74
2023-05-23T01:56:09.610Z,72.72
2023-05-23T01:58:37.889Z,72.74
2023-05-23T02:01:07.995Z,72.76
2023-05-23T02:03:38.171Z,73.07
2023-05-23T02:06:06.976Z,72.92
2023-05-23T02:08:36.254Z,73.03
2023-05-23T02:11:04.601Z,73.26
2023-05-23T02:13:32.863Z,73.24
2023-05-23T02:16:01.285Z,73.03
2023-05-23T02:18:30.952Z,73.32
2023-05-23T02:20:59.232Z,73.11
2023-05-23T02:23:27.468Z,73.12
2023-05-23T02:25:56.205Z,73.21
2023-05-23T02:28:24.511Z,73.18
2023-05-23T02:30:52.769Z,73.24
2023-05-23T02:33:21.785Z,73.11
2023-05-23T02:35:51.625Z,72.96
2023-05-23T02:38:20.907Z,73.00
2023-05-23T02:40:50.508Z,72.96
2023-05-23T02:43:19.171Z,73.00
2023-05-23T02:45:54.967Z,72.89
2023-05-23T02:48:23.306Z,72.83
2023-05-23T02:50:53.482Z,72.50
2023-05-23T02:53:22.659Z,72.57
2023-05-23T02:55:51.239Z,72.30
2023-05-23T02:58:20.808Z,72.38
2023-05-23T03:00:49.220Z,72.29
2023-05-23T03:03:18.580Z,72.12
2023-05-23T03:05:46.972Z,72.16
2023-05-23T03:08:16.915Z,72.22
2023-05-23T03:10:45.185Z,72.03
2023-05-23T03:13:13.407Z,72.09
2023-05-23T03:15:41.907Z,71.93
2023-05-23T03:18:11.097Z,71.82
2023-05-23T03:20:39.350Z,72.03
2023-05-23T03:23:07.589Z,71.88
2023-05-23T03:25:37.543Z,71.99
2023-05-23T03:28:06.334Z,71.96
2023-05-23T03:30:34.522Z,71.96
2023-05-23T03:33:03.149Z,72.23
2023-05-23T03:35:31.803Z,72.15
2023-05-23T03:38:00.204Z,72.06
2023-05-23T03:40:28.420Z,72.03
2023-05-23T03:43:05.714Z,72.08
2023-05-23T03:45:36.426Z,72.15
2023-05-23T03:48:09.501Z,72.13
2023-05-23T03:50:37.755Z,72.07
2023-05-23T03:53:06.112Z,72.02
2023-05-23T03:55:34.526Z,72.06
2023-05-23T03:58:04.595Z,71.91
2023-05-23T04:00:32.885Z,71.99
2023-05-23T04:03:02.843Z,72.16
2023-05-23T04:05:31.826Z,71.95
2023-05-23T04:08:02.315Z,71.92
2023-05-23T04:10:31.600Z,71.84
2023-05-23T04:13:00.603Z,71.72
2023-05-23T04:15:30.418Z,71.77
2023-05-23T04:18:04.775Z,71.77
2023-05-23T04:20:34.016Z,71.87
2023-05-23T04:23:02.340Z,71.76
2023-05-23T04:25:34.202Z,71.80
2023-05-23T04:28:35.907Z,71.74
2023-05-23T04:31:07.162Z,71.74
2023-05-23T04:33:38.032Z,71.93
2023-05-23T04:36:09.228Z,71.73
2023-05-23T04:38:41.095Z,71.87
2023-05-23T04:41:11.309Z,71.90
2023-05-23T04:44:04.832Z,71.80
2023-05-23T04:46:42.416Z,71.89
2023-05-23T04:49:34.236Z,72.00
2023-05-23T04:52:03.777Z,71.99
2023-05-23T04:54:33.671Z,72.16
2023-05-23T04:57:06.283Z,72.08
2023-05-23T04:59:35.011Z,72.09
2023-05-23T05:02:06.972Z,72.19
2023-05-23T05:04:36.396Z,72.32
2023-05-23T05:07:04.721Z,72.16
2023-05-23T05:09:33.066Z,72.10
2023-05-23T05:12:01.644Z,72.05
2023-05-23T05:14:30.711Z,72.13
2023-05-23T05:16:59.354Z,72.09
2023-05-23T05:19:36.544Z,72.04
2023-05-23T05:22:05.236Z,72.00
2023-05-23T05:24:34.292Z,71.98
2023-05-23T05:27:02.610Z,71.90
2023-05-23T05:29:33.859Z,72.16
2023-05-23T05:32:03.435Z,71.65
2023-05-23T05:34:32.364Z,71.64
2023-05-23T05:37:02.586Z,71.42
2023-05-23T05:39:30.826Z,71.34
2023-05-23T05:41:59.417Z,71.45
2023-05-23T05:44:27.976Z,71.03
2023-05-23T05:46:56.270Z,70.81
2023-05-23T05:49:24.557Z,71.19
2023-05-23T05:51:54.182Z,71.13
2023-05-23T05:54:23.785Z,71.06
2023-05-23T05:56:52.142Z,71.10
2023-05-23T05:59:20.500Z,71.20
2023-05-23T06:01:48.784Z,70.68
2023-05-23T06:04:17.210Z,71.18
2023-05-23T06:06:46.053Z,71.01
2023-05-23T06:09:14.351Z,70.96
2023-05-23T06:11:44.000Z,70.70
2023-05-23T06:14:12.480Z,70.71
2023-05-23T06:16:44.926Z,70.32
2023-05-23T06:19:13.202Z,70.64
2023-05-23T06:21:42.294Z,70.10
2023-05-23T06:24:12.333Z,70.24
2023-05-23T06:26:40.581Z,69.69
2023-05-23T06:29:11.323Z,70.08
2023-05-23T06:31:39.777Z,70.29
2023-05-23T06:34:08.084Z,70.49
2023-05-23T06:36:36.410Z,69.93
2023-05-23T06:39:04.759Z,71.06
2023-05-23T06:41:33.155Z,69.86
2023-05-23T06:44:01.485Z,69.71
2023-05-23T06:46:33.600Z,69.81
2023-05-23T06:49:14.276Z,69.23
2023-05-23T06:51:45.329Z,69.80
2023-05-23T06:54:13.942Z,69.52
2023-05-23T06:56:42.622Z,69.26
2023-05-23T06:59:11.056Z,68.93
2023-05-23T07:01:41.623Z,68.58
2023-05-23T07:04:09.972Z,69.45
2023-05-23T07:06:39.920Z,69.39
2023-05-23T07:09:09.406Z,69.86
2023-05-23T07:11:39.826Z,69.44
2023-05-23T07:14:09.668Z,70.13
2023-05-23T07:16:44.259Z,69.84
2023-05-23T07:19:12.686Z,69.90
2023-05-23T07:21:47.752Z,70.13
2023-05-23T07:24:18.759Z,70.29
2023-05-23T07:26:47.133Z,70.55
2023-05-23T07:29:16.425Z,70.94
2023-05-23T07:31:48.249Z,70.69
2023-05-23T07:34:16.703Z,70.72
2023-05-23T07:36:57.420Z,70.71
2023-05-23T07:39:28.083Z,70.87
2023-05-23T07:41:59.026Z,71.02
2023-05-23T07:44:27.392Z,70.94
2023-05-23T07:46:57.057Z,70.91
2023-05-23T07:49:26.744Z,70.92
2023-05-23T07:51:56.148Z,70.68
2023-05-23T07:54:24.419Z,70.63
2023-05-23T07:56:56.954Z,71.05
2023-05-23T07:59:26.945Z,70.74
2023-05-23T08:01:57.730Z,70.76
2023-05-23T08:04:27.936Z,70.90
2023-05-23T08:09:34.113Z,70.92
2023-05-23T08:12:02.513Z,70.91
2023-05-23T08:14:49.158Z,71.55
2023-05-23T08:17:34.530Z,71.45
2023-05-23T08:20:05.138Z,71.46
2023-05-23T08:22:33.485Z,71.42
2023-05-23T08:25:03.060Z,71.44
2023-05-23T08:27:32.434Z,71.05
2023-05-23T08:30:08.635Z,71.30
2023-05-23T08:32:42.132Z,71.67
2023-05-23T08:35:10.962Z,71.02
2023-05-23T08:37:46.180Z,71.30
2023-05-23T08:40:16.123Z,71.41
2023-05-23T08:42:49.441Z,70.81
2023-05-23T08:45:18.965Z,70.28
2023-05-23T08:47:48.818Z,69.97
2023-05-23T08:50:27.270Z,69.83
2023-05-23T08:52:57.377Z,69.65
2023-05-23T08:55:28.301Z,69.57
2023-05-23T08:58:00.460Z,70.52
2023-05-23T09:00:53.146Z,69.46
2023-05-23T09:03:24.024Z,69.44
2023-05-23T09:06:13.963Z,68.45
2023-05-23T09:08:46.023Z,68.91
2023-05-23T09:11:15.802Z,68.88
2023-05-23T09:13:46.075Z,68.48
2023-05-23T09:16:19.015Z,67.88
2023-05-23T09:18:53.170Z,67.74
2023-05-23T09:21:26.000Z,66.01
2023-05-23T09:24:07.304Z,65.81
2023-05-23T09:26:36.354Z,66.61
2023-05-23T09:29:07.465Z,66.38
2023-05-23T09:31:37.071Z,65.99
2023-05-23T09:34:10.878Z,65.91
2023-05-23T09:36:44.260Z,65.08
2023-05-23T09:39:14.052Z,64.68
2023-05-23T09:41:42.279Z,63.92
2023-05-23T09:44:11.034Z,64.99
2023-05-23T09:46:39.662Z,64.95
2023-05-23T09:49:18.991Z,66.27
2023-05-23T09:51:58.729Z,65.20
2023-05-23T09:54:27.263Z,64.87
2023-05-23T09:56:57.671Z,63.09
2023-05-23T09:59:29.585Z,62.81
2023-05-23T10:01:58.863Z,63.09
2023-05-23T10:04:32.630Z,63.13
2023-05-23T10:07:06.983Z,63.78
2023-05-23T10:09:39.114Z,63.82
2023-05-23T10:12:44.556Z,64.45
2023-05-23T10:15:16.801Z,63.37
2023-05-23T10:18:04.341Z,63.24
2023-05-23T10:20:36.583Z,62.39
2023-05-23T10:23:06.284Z,63.38
2023-05-23T10:25:37.165Z,62.66
2023-05-23T10:28:06.617Z,60.70
2023-05-23T10:30:36.010Z,61.08
2023-05-23T10:33:06.167Z,61.82
2023-05-23T10:35:47.288Z,62.06
2023-05-23T10:38:36.084Z,62.64
2023-05-23T10:41:11.854Z,61.40
2023-05-23T10:43:48.328Z,62.08
2023-05-23T10:46:16.901Z,60.31
2023-05-23T10:48:46.219Z,60.09
2023-05-23T10:51:17.317Z,60.71
2023-05-23T10:53:46.860Z,60.42
2023-05-23T10:56:22.454Z,61.79
2023-05-23T10:58:54.876Z,59.90
2023-05-23T11:01:23.809Z,60.22
2023-05-23T11:03:55.628Z,58.93
2023-05-23T11:06:35.247Z,58.53
2023-05-23T11:09:08.342Z,58.93
2023-05-23T11:11:53.926Z,58.41
2023-05-23T11:14:33.683Z,59.41
2023-05-23T11:17:02.613Z,59.46
2023-05-23T11:19:30.983Z,59.02
2023-05-23T11:22:02.138Z,59.34
2023-05-23T11:24:52.422Z,59.90
2023-05-23T11:27:27.895Z,61.73
2023-05-23T11:30:01.449Z,60.13
2023-05-23T11:32:31.295Z,59.19
2023-05-23T11:35:03.417Z,60.56
2023-05-23T11:37:33.455Z,61.03
2023-05-23T11:40:32.458Z,59.67
2023-05-23T11:43:01.884Z,60.18
2023-05-23T11:45:31.756Z,60.64
2023-05-23T11:48:00.324Z,59.78
2023-05-23T11:50:28.598Z,61.32
2023-05-23T11:52:58.235Z,61.73
2023-05-23T11:55:26.607Z,61.24
2023-05-23T11:57:57.558Z,60.93
2023-05-23T12:00:25.950Z,60.48
2023-05-23T12:02:54.367Z,60.85
2023-05-23T12:05:22.688Z,61.79
2023-05-23T12:07:51.181Z,60.60
2023-05-23T12:10:21.908Z,60.33
2023-05-23T12:12:52.520Z,59.80
2023-05-23T12:15:26.164Z,59.99
2023-05-23T12:17:55.488Z,58.84
2023-05-23T12:20:25.345Z,58.00
2023-05-23T12:22:55.491Z,58.50
2023-05-23T12:25:27.846Z,59.40
2023-05-23T12:27:56.375Z,59.07
2023-05-23T12:30:24.740Z,59.60
2023-05-23T12:32:53.057Z,60.07
2023-05-23T12:35:21.556Z,58.62
2023-05-23T12:37:49.843Z,59.35
2023-05-23T12:40:19.584Z,58.30
2023-05-23T12:42:52.636Z,58.77
2023-05-23T12:45:21.363Z,59.19
2023-05-23T12:47:51.386Z,58.44
2023-05-23T12:50:20.764Z,58.80
2023-05-23T12:52:49.014Z,57.73
2023-05-23T12:55:17.335Z,57.38
2023-05-23T12:57:45.661Z,56.69
2023-05-23T13:00:16.219Z,57.81
2023-05-23T13:02:44.585Z,56.93
2023-05-23T13:05:12.956Z,57.08
2023-05-23T13:07:41.305Z,56.99
2023-05-23T13:10:10.796Z,56.69
2023-05-23T13:12:39.062Z,57.39
2023-05-23T13:15:08.390Z,57.24
2023-05-23T13:17:38.040Z,57.29
2023-05-23T13:20:09.453Z,58.48
2023-05-23T13:22:37.760Z,57.19
2023-05-23T13:25:07.424Z,57.70
2023-05-23T13:27:36.215Z,80.30
2023-05-23T13:30:04.800Z,80.91
2023-05-23T13:32:33.238Z,89.18
2023-05-23T13:35:03.497Z,88.17
2023-05-23T13:37:32.198Z,88.25
2023-05-23T13:40:03.080Z,92.85
2023-05-23T13:42:31.453Z,94.35
2023-05-23T13:44:59.785Z,93.10
2023-05-23T13:47:28.047Z,96.58
2023-05-23T13:49:56.471Z,98.90
2023-05-23T13:52:26.626Z,97.03
2023-05-23T13:54:54.958Z,98.84
2023-05-23T13:57:23.295Z,97.61
2023-05-23T13:59:51.530Z,95.08
2023-05-23T14:02:19.840Z,98.13
2023-05-23T14:04:48.043Z,96.65
2023-05-23T14:07:16.948Z,96.55
2023-05-23T14:09:46.558Z,97.52
2023-05-23T14:12:14.842Z,96.62
2023-05-23T14:14:43.125Z,96.33
2023-05-23T14:17:16.025Z,93.68
2023-05-23T14:19:44.714Z,92.70
2023-05-23T14:22:13.042Z,93.04
2023-05-23T14:24:41.366Z,93.52
2023-05-23T14:27:11.532Z,91.44
2023-05-23T14:29:40.182Z,90.24
2023-05-23T14:32:08.526Z,88.64
2023-05-23T14:34:37.148Z,89.00
2023-05-23T14:37:05.929Z,87.12
2023-05-23T14:39:34.333Z,85.65
2023-05-23T14:42:03.097Z,86.64
2023-05-23T14:44:32.918Z,85.12
2023-05-23T14:47:01.256Z,87.71
2023-05-23T14:49:29.513Z,86.25
2023-05-23T14:51:57.956Z,86.66
2023-05-23T14:54:26.243Z,82.19
2023-05-23T14:56:54.478Z,85.88
2023-05-23T14:59:22.947Z,84.32
2023-05-23T15:01:52.757Z,87.38
2023-05-23T15:04:21.169Z,87.89
2023-05-23T15:06:50.922Z,85.80
2023-05-23T15:09:19.177Z,87.96
2023-05-23T15:11:49.385Z,85.86
2023-05-23T15:14:17.926Z,83.29
2023-05-23T15:16:48.876Z,87.24
2023-05-23T15:19:18.743Z,85.82
2023-05-23T15:21:51.219Z,83.37
2023-05-23T15:24:20.323Z,86.09
2023-05-23T15:26:48.895Z,84.78
2023-05-23T15:29:18.236Z,83.05
2023-05-23T15:31:46.689Z,84.90
2023-05-23T15:34:14.978Z,84.28
2023-05-23T15:36:44.591Z,84.97
2023-05-23T15:39:13.215Z,85.55
2023-05-23T15:41:41.530Z,83.04
2023-05-23T15:44:10.587Z,82.13
2023-05-23T15:46:40.345Z,83.59
2023-05-23T15:49:21.608Z,84.61
2023-05-23T15:51:55.614Z,82.04
2023-05-23T15:54:24.048Z,82.58
2023-05-23T15:56:52.263Z,83.35
2023-05-23T15:59:21.172Z,82.65
2023-05-23T16:01:49.544Z,82.94
2023-05-23T16:04:17.796Z,82.87
2023-05-23T16:06:46.047Z,80.27
2023-05-23T16:09:15.682Z,84.19
2023-05-23T16:11:44.133Z,85.19
2023-05-23T16:14:12.385Z,84.44
2023-05-23T16:16:40.865Z,85.03
2023-05-23T16:19:09.252Z,82.88
2023-05-23T16:21:37.573Z,82.65
2023-05-23T16:24:06.548Z,80.81
2023-05-23T16:26:36.195Z,83.36
2023-05-23T16:29:04.417Z,82.73
2023-05-23T16:31:32.738Z,81.73
2023-05-23T16:34:01.045Z,80.90
2023-05-23T16:36:29.581Z,80.62
2023-05-23T16:38:58.024Z,80.85
2023-05-23T16:41:26.405Z,81.49
2023-05-23T16:43:56.423Z,82.99
2023-05-23T16:46:24.717Z,81.34
2023-05-23T16:48:53.154Z,83.01
2023-05-23T16:51:21.399Z,84.32
2023-05-23T16:53:49.709Z,83.15
2023-05-23T16:56:17.944Z,81.80
2023-05-23T16:58:46.671Z,82.02
2023-05-23T17:01:17.093Z,85.22
2023-05-23T17:03:45.599Z,84.14
2023-05-23T17:06:14.033Z,83.87
2023-05-23T17:08:42.266Z,86.51
2023-05-23T17:11:10.570Z,86.11
2023-05-23T17:13:38.833Z,86.89
2023-05-23T17:16:07.131Z,85.33
2023-05-23T17:18:37.299Z,86.54
2023-05-23T17:21:05.624Z,86.21
2023-05-23T17:23:33.865Z,88.62
2023-05-23T17:26:02.130Z,89.05
2023-05-23T17:28:30.400Z,88.63
2023-05-23T17:30:58.633Z,89.85
2023-05-23T17:33:27.051Z,92.04
2023-05-23T17:35:56.710Z,94.18
2023-05-23T17:38:25.141Z,95.80
2023-05-23T17:40:53.573Z,96.99
2023-05-23T17:43:22.046Z,98.11
2023-05-23T17:45:50.467Z,99.46
2023-05-23T17:48:18.787Z,100.09
2023-05-23T17:50:47.133Z,101.09
2023-05-23T17:53:16.914Z,101.72
2023-05-23T17:55:45.232Z,100.66
2023-05-23T17:58:13.641Z,101.30
2023-05-23T18:00:42.048Z,101.41
2023-05-23T18:03:11.275Z,102.47
2023-05-23T18:05:39.623Z,102.24
2023-05-23T18:08:07.942Z,102.04
2023-05-23T18:10:38.118Z,102.39
2023-05-23T18:13:06.445Z,102.86
2023-05-23T18:15:34.874Z,103.06
2023-05-23T18:18:03.207Z,103.29
2023-05-23T18:20:31.576Z,103.47
2023-05-23T18:22:59.772Z,103.76
2023-05-23T18:25:28.377Z,103.22
2023-05-23T18:27:59.541Z,103.70
2023-05-23T18:30:28.449Z,104.21
2023-05-23T18:32:57.074Z,105.38
2023-05-23T18:35:26.474Z,104.86
2023-05-23T18:37:55.027Z,104.68
2023-05-23T18:40:24.297Z,104.59
2023-05-23T18:42:52.708Z,103.91
2023-05-23T18:45:22.533Z,104.66
2023-05-23T18:47:51.197Z,104.67
2023-05-23T18:50:20.359Z,104.53
2023-05-23T18:52:48.729Z,104.49
2023-05-23T18:55:17.541Z,105.09
2023-05-23T18:57:45.851Z,105.56
2023-05-23T19:00:15.124Z,105.15
2023-05-23T19:02:45.826Z,105.98
2023-05-23T19:05:14.674Z,105.16
2023-05-23T19:07:42.912Z,105.46
2023-05-23T19:10:12.126Z,104.40
2023-05-23T19:12:40.623Z,105.51
2023-05-23T19:15:11.339Z,105.24
2023-05-23T19:17:39.847Z,106.04
2023-05-23T19:20:10.674Z,105.20
2023-05-23T19:22:50.997Z,105.45
2023-05-23T19:25:21.016Z,105.63
2023-05-23T19:27:49.336Z,105.35
2023-05-23T19:30:17.620Z,105.47
2023-05-23T19:32:45.938Z,103.68
2023-05-23T19:35:16.978Z,105.18
2023-05-23T19:37:46.020Z,104.90
2023-05-23T19:40:14.602Z,104.42
2023-05-23T19:42:42.876Z,105.14
2023-05-23T19:45:12.296Z,104.45
2023-05-23T19:47:40.868Z,104.03
2023-05-23T19:50:11.953Z,102.43
2023-05-23T19:52:42.312Z,102.39
2023-05-23T19:55:11.194Z,102.81
2023-05-23T19:57:39.499Z,102.53
2023-05-23T20:00:09.913Z,101.77
2023-05-23T20:02:38.587Z,102.24
2023-05-23T20:05:10.128Z,103.20
2023-05-23T20:07:39.693Z,102.54
2023-05-23T20:10:10.314Z,103.39
2023-05-23T20:12:38.639Z,100.18
2023-05-23T20:15:07.881Z,100.84
2023-05-23T20:17:36.422Z,99.78
2023-05-23T20:20:05.142Z,99.32
2023-05-23T20:22:33.469Z,99.49
2023-05-23T20:25:01.781Z,100.88
2023-05-23T20:27:31.547Z,100.22
2023-05-23T20:30:00.949Z,100.87
2023-05-23T20:32:29.326Z,100.62
2023-05-23T20:34:57.585Z,99.90
2023-05-23T20:37:28.224Z,99.61
2023-05-23T20:39:56.697Z,99.01
2023-05-23T20:42:26.646Z,98.51
2023-05-23T20:44:57.082Z,99.00
2023-05-23T20:47:25.923Z,97.53
2023-05-23T20:49:54.254Z,98.29
2023-05-23T20:52:23.002Z,97.76
2023-05-23T20:54:52.442Z,98.16
2023-05-23T20:57:21.990Z,96.94
2023-05-23T20:59:50.513Z,97.91
2023-05-23T21:02:20.179Z,97.61
2023-05-23T21:04:48.536Z,97.32
2023-05-23T21:07:16.898Z,97.81
2023-05-23T21:09:45.188Z,97.96
2023-05-23T21:12:13.478Z,96.28
2023-05-23T21:14:41.778Z,93.84
2023-05-23T21:17:16.769Z,95.28
2023-05-23T21:19:46.591Z,94.07
2023-05-23T21:22:14.873Z,94.50
2023-05-23T21:24:43.408Z,93.31
2023-05-23T21:27:12.202Z,92.41
2023-05-23T21:29:40.633Z,92.31
2023-05-23T21:32:08.974Z,92.07
2023-05-23T21:34:37.231Z,92.18
2023-05-23T21:37:07.014Z,91.09
2023-05-23T21:39:50.057Z,89.34
2023-05-23T21:42:20.794Z,91.28
2023-05-23T21:44:49.486Z,90.02
2023-05-23T21:47:17.734Z,90.43
2023-05-23T21:49:46.035Z,91.09
2023-05-23T21:52:15.759Z,90.21
2023-05-23T21:54:45.961Z,88.95
2023-05-23T21:57:14.322Z,89.39
2023-05-23T21:59:43.767Z,90.51
2023-05-23T22:02:12.296Z,89.52
2023-05-23T22:04:40.725Z,89.73
2023-05-23T22:07:08.991Z,89.72
2023-05-23T22:09:38.622Z,89.97
2023-05-23T22:12:07.566Z,88.45
2023-05-23T22:14:35.844Z,86.91
2023-05-23T22:17:04.410Z,86.53
2023-05-23T22:19:32.674Z,87.08
2023-05-23T22:22:01.112Z,86.98
2023-05-23T22:24:29.630Z,86.00
2023-05-23T22:27:00.731Z,86.25
2023-05-23T22:29:29.062Z,86.16
2023-05-23T22:31:57.354Z,85.74
2023-05-23T22:34:25.796Z,86.57
2023-05-23T22:36:54.044Z,85.55
2023-05-23T22:39:22.284Z,85.36
2023-05-23T22:41:50.653Z,86.00
2023-05-23T22:44:20.368Z,85.22
2023-05-23T22:46:48.619Z,85.04
2023-05-23T22:49:16.997Z,85.52
2023-05-23T22:51:45.338Z,85.58
2023-05-23T22:54:13.599Z,85.29
2023-05-23T22:56:41.900Z,85.84
2023-05-23T22:59:10.269Z,85.58
2023-05-23T23:01:40.025Z,85.05
2023-05-23T23:04:08.317Z,84.68
2023-05-23T23:06:36.584Z,85.02
2023-05-23T23:09:05.637Z,84.90
2023-05-23T23:11:33.861Z,84.76
2023-05-23T23:14:02.205Z,84.27
2023-05-23T23:16:30.741Z,83.61
2023-05-23T23:19:00.440Z,83.81
2023-05-23T23:21:28.698Z,83.16
2023-05-23T23:23:56.912Z,83.00
2023-05-23T23:26:25.208Z,82.15
2023-05-23T23:28:53.476Z,82.65
2023-05-23T23:31:21.813Z,82.01
2023-05-23T23:33:50.066Z,80.62
2023-05-23T23:36:19.658Z,79.96
2023-05-23T23:38:48.157Z,79.66
2023-05-23T23:41:16.388Z,78.94
2023-05-23T23:43:44.638Z,78.71
2023-05-23T23:46:13.367Z,77.90
2023-05-23T23:48:41.624Z,76.88
2023-05-23T23:51:09.996Z,76.94
2023-05-23T23:53:39.675Z,76.59
2023-05-23T23:56:07.984Z,76.16
2023-05-23T23:58:36.479Z,75.85
